createdAt,value
2023-03-28T00:00:44.683Z,98212.17
2023-03-28T00:01:47.162Z,98210.31
2023-03-28T00:02:50.013Z,98206.61
2023-03-28T00:03:53.116Z,98203.23
2023-03-28T00:04:56.183Z,98203.92
2023-03-28T00:06:02.353Z,98212.00
2023-03-28T00:07:07.172Z,98205.61
2023-03-28T00:08:12.537Z,98207.44
2023-03-28T00:09:16.288Z,98209.95
2023-03-28T00:10:19.446Z,98208.30
2023-03-28T00:11:22.153Z,98216.20
2023-03-28T00:12:24.663Z,98218.03
2023-03-28T00:13:28.979Z,98207.95
2023-03-28T00:14:31.904Z,98213.34
2023-03-28T00:15:39.614Z,98213.16
2023-03-28T00:16:44.613Z,98207.77
2023-03-28T00:17:47.236Z,98205.08
2023-03-28T00:18:50.381Z,98211.30
2023-03-28T00:19:53.029Z,98213.81
2023-03-28T00:20:55.990Z,98209.28
2023-03-28T00:21:58.347Z,98211.98
2023-03-28T00:23:00.923Z,98203.90
2023-03-28T00:24:05.225Z,98203.90
2023-03-28T00:25:08.599Z,98205.59
2023-03-28T00:26:12.652Z,98197.50
2023-03-28T00:27:15.787Z,98195.64
2023-03-28T00:28:18.645Z,98194.81
2023-03-28T00:29:21.759Z,98193.95
2023-03-28T00:30:24.388Z,98196.64
2023-03-28T00:31:27.081Z,98194.13
2023-03-28T00:32:31.647Z,98192.44
2023-03-28T00:33:41.384Z,98207.77
2023-03-28T00:34:46.199Z,98195.31
2023-03-28T00:35:53.034Z,98194.48
2023-03-28T00:36:57.182Z,98196.34
2023-03-28T00:38:05.864Z,98193.66
2023-03-28T00:39:10.705Z,98200.88
2023-03-28T00:40:15.937Z,98193.66
2023-03-28T00:41:21.105Z,98188.27
2023-03-28T00:42:23.783Z,98195.31
2023-03-28T00:43:42.743Z,98195.31
2023-03-28T00:44:48.140Z,98189.75
2023-03-28T00:46:02.669Z,98197.83
2023-03-28T00:46:56.353Z,98188.09
2023-03-28T00:48:04.661Z,98189.75
2023-03-28T00:49:24.704Z,98185.39
2023-03-28T00:50:37.161Z,98186.22
2023-03-28T00:51:42.755Z,98184.54
2023-03-28T00:54:32.198Z,98183.33
2023-03-28T00:55:41.653Z,98181.84
2023-03-28T00:56:47.726Z,98177.50
2023-03-28T00:57:50.579Z,98183.88
2023-03-28T00:58:54.337Z,98183.88
2023-03-28T00:59:57.029Z,98174.95
2023-03-28T01:00:59.797Z,98178.50
2023-03-28T01:02:04.346Z,98172.25
2023-03-28T01:03:07.211Z,98177.64
2023-03-28T01:04:09.931Z,98173.94
2023-03-28T01:05:13.086Z,98172.94
2023-03-28T01:06:16.795Z,98174.80
2023-03-28T01:07:19.776Z,98171.07
2023-03-28T01:08:24.875Z,98167.55
2023-03-28T01:09:29.037Z,98167.38
2023-03-28T01:10:31.463Z,98164.67
2023-03-28T01:11:37.892Z,98161.98
2023-03-28T01:12:40.960Z,98165.50
2023-03-28T01:13:49.067Z,98157.42
2023-03-28T01:14:52.140Z,98161.16
2023-03-28T01:15:56.411Z,98152.22
2023-03-28T01:17:00.107Z,98163.85
2023-03-28T01:18:07.532Z,98154.91
2023-03-28T01:19:13.939Z,98158.28
2023-03-28T01:20:25.821Z,98160.12
2023-03-28T01:21:49.344Z,98156.42
2023-03-28T01:23:05.068Z,98154.73
2023-03-28T01:24:31.036Z,98157.42
2023-03-28T01:26:10.936Z,98154.73
2023-03-28T01:27:29.061Z,98157.60
2023-03-28T01:28:39.070Z,98154.27
2023-03-28T01:31:42.124Z,98151.72
2023-03-28T01:33:27.751Z,98148.72
2023-03-28T01:34:52.720Z,98148.91
2023-03-28T01:36:34.433Z,98136.62
2023-03-28T01:37:45.679Z,98135.97
2023-03-28T01:38:55.740Z,98135.46
2023-03-28T01:40:11.466Z,98133.59
2023-03-28T01:43:04.593Z,98141.47
2023-03-28T01:44:26.339Z,98142.72
2023-03-28T01:45:45.728Z,98139.16
2023-03-28T01:46:53.954Z,98143.72
2023-03-28T01:48:07.952Z,98138.33
2023-03-28T01:49:17.864Z,98138.33
2023-03-28T01:52:08.741Z,98138.78
2023-03-28T01:53:23.836Z,98136.47
2023-03-28T01:54:34.728Z,98120.31
2023-03-28T01:57:04.376Z,98119.92
2023-03-28T01:58:16.427Z,98115.61
2023-03-28T01:59:44.836Z,98112.91
2023-03-28T02:02:15.805Z,98110.67
2023-03-28T02:04:37.252Z,98107.97
2023-03-28T02:05:40.547Z,98111.73
2023-03-28T02:06:46.712Z,98130.58
2023-03-28T02:07:54.185Z,98114.42
2023-03-28T02:08:58.555Z,98115.91
2023-03-28T02:10:23.038Z,98113.89
2023-03-28T02:11:36.439Z,98113.89
2023-03-28T02:12:47.744Z,98111.02
2023-03-28T02:13:56.811Z,98115.58
2023-03-28T02:15:15.388Z,98106.64
2023-03-28T02:16:49.542Z,98103.95
2023-03-28T02:18:02.099Z,98102.27
2023-03-28T02:20:38.174Z,98092.97
2023-03-28T02:23:14.566Z,98096.52
2023-03-28T02:24:25.353Z,98097.73
2023-03-28T02:25:31.227Z,98094.03
2023-03-28T02:26:52.080Z,98101.26
2023-03-28T02:28:07.060Z,98105.64
2023-03-28T02:29:30.118Z,98100.25
2023-03-28T02:30:35.467Z,98105.45
2023-03-28T02:31:38.030Z,98098.39
2023-03-28T02:32:42.587Z,98088.47
2023-03-28T02:33:46.836Z,98084.74
2023-03-28T02:34:51.127Z,98085.60
2023-03-28T02:36:13.984Z,98090.13
2023-03-28T02:37:38.359Z,98082.05
2023-03-28T02:39:09.904Z,98081.72
2023-03-28T02:40:28.662Z,98073.46
2023-03-28T02:41:46.494Z,98074.29
2023-03-28T02:42:56.261Z,98079.67
2023-03-28T02:44:14.953Z,98074.29
2023-03-28T02:45:50.914Z,98075.15
2023-03-28T02:47:01.261Z,98069.77
2023-03-28T02:48:32.161Z,98067.89
2023-03-28T02:50:01.259Z,98067.89
2023-03-28T02:51:07.626Z,98065.20
2023-03-28T02:52:20.820Z,98068.73
2023-03-28T02:53:34.549Z,98063.52
2023-03-28T02:56:15.495Z,98062.28
2023-03-28T02:57:47.960Z,98060.83
2023-03-28T02:59:14.650Z,98058.13
2023-03-28T03:00:19.075Z,98054.61
2023-03-28T03:01:24.551Z,98052.56
2023-03-28T03:02:29.237Z,98051.73
2023-03-28T03:03:38.490Z,98055.44
2023-03-28T03:04:41.937Z,98049.22
2023-03-28T03:05:45.746Z,98052.74
2023-03-28T03:06:50.659Z,98052.56
2023-03-28T03:07:53.232Z,98052.56
2023-03-28T03:08:56.669Z,98053.42
2023-03-28T03:10:00.366Z,98047.86
2023-03-28T03:11:02.990Z,98052.20
2023-03-28T03:12:07.444Z,98050.55
2023-03-28T03:13:10.506Z,98044.13
2023-03-28T03:14:13.053Z,98039.59
2023-03-28T03:15:18.471Z,98044.13
2023-03-28T03:16:27.499Z,98043.12
2023-03-28T03:17:30.822Z,98043.98
2023-03-28T03:18:34.913Z,98038.59
2023-03-28T03:19:37.497Z,98034.03
2023-03-28T03:20:40.593Z,98034.03
2023-03-28T03:21:46.311Z,98031.16
2023-03-28T03:22:49.032Z,98022.89
2023-03-28T03:23:51.553Z,98035.35
2023-03-28T03:24:55.794Z,98038.05
2023-03-28T03:25:59.365Z,98037.03
2023-03-28T03:27:03.838Z,98036.00
2023-03-28T03:28:06.654Z,98034.16
2023-03-28T03:29:10.059Z,98039.55
2023-03-28T03:30:13.331Z,98037.86
2023-03-28T03:31:36.416Z,98034.16
2023-03-28T03:32:57.887Z,98033.30
2023-03-28T03:34:02.570Z,98027.73
2023-03-28T03:35:07.688Z,98029.60
2023-03-28T03:36:13.242Z,98019.66
2023-03-28T03:37:17.319Z,98018.83
2023-03-28T03:38:20.101Z,98019.66
2023-03-28T03:39:23.085Z,98021.34
2023-03-28T03:40:25.815Z,98023.02
2023-03-28T03:41:28.685Z,98027.41
2023-03-28T03:42:32.518Z,98013.08
2023-03-28T03:43:35.815Z,98023.02
2023-03-28T03:44:38.634Z,98020.15
2023-03-28T03:45:42.831Z,98014.76
2023-03-28T03:46:46.383Z,98023.52
2023-03-28T03:47:49.423Z,98011.06
2023-03-28T03:48:52.718Z,97997.59
2023-03-28T03:49:55.535Z,97997.59
2023-03-28T03:50:58.351Z,98010.88
2023-03-28T03:52:02.083Z,98000.09
2023-03-28T03:53:05.234Z,98010.88
2023-03-28T03:54:11.056Z,98008.18
2023-03-28T03:55:15.000Z,98008.36
2023-03-28T03:56:20.475Z,98008.36
2023-03-28T03:57:31.470Z,98015.44
2023-03-28T03:58:36.909Z,98007.35
2023-03-28T03:59:41.417Z,98003.16
2023-03-28T04:00:47.727Z,98000.46
2023-03-28T04:02:08.888Z,98002.12
2023-03-28T04:03:24.134Z,98006.86
2023-03-28T04:04:17.777Z,98010.38
2023-03-28T04:05:25.224Z,98007.69
2023-03-28T04:06:37.792Z,97999.61
2023-03-28T04:07:42.467Z,97998.78
2023-03-28T04:08:47.666Z,98002.30
2023-03-28T04:09:52.519Z,98000.65
2023-03-28T04:10:56.604Z,97989.69
2023-03-28T04:11:59.781Z,97992.56
2023-03-28T04:13:02.672Z,97994.22
2023-03-28T04:14:05.583Z,97994.22
2023-03-28T04:15:09.965Z,98001.47
2023-03-28T04:16:15.223Z,97996.08
2023-03-28T04:17:22.966Z,97986.99
2023-03-28T04:18:28.200Z,97988.00
2023-03-28T04:19:33.719Z,97987.82
2023-03-28T04:20:36.324Z,97986.14
2023-03-28T04:21:42.330Z,97986.14
2023-03-28T04:22:47.677Z,97985.31
2023-03-28T04:23:52.082Z,97977.23
2023-03-28T04:25:17.458Z,97976.41
2023-03-28T04:26:23.329Z,97974.53
2023-03-28T04:27:32.120Z,97974.53
2023-03-28T04:28:35.583Z,97977.23
2023-03-28T04:29:41.166Z,97978.05
2023-03-28T04:31:03.864Z,97974.35
2023-03-28T04:33:34.135Z,97967.71
2023-03-28T04:34:39.840Z,97971.02
2023-03-28T04:35:45.051Z,97973.86
2023-03-28T04:36:48.864Z,97968.66
2023-03-28T04:37:53.863Z,97967.83
2023-03-28T04:38:59.244Z,97965.13
2023-03-28T04:40:10.508Z,97966.14
2023-03-28T04:41:25.261Z,97959.93
2023-03-28T04:42:32.505Z,97958.06
2023-03-28T04:43:37.204Z,97955.37
2023-03-28T04:44:40.717Z,97957.05
2023-03-28T04:45:44.864Z,97957.05
2023-03-28T04:46:50.666Z,97958.73
2023-03-28T04:47:53.786Z,97963.27
2023-03-28T04:48:57.938Z,97961.44
2023-03-28T04:50:02.559Z,97956.88
2023-03-28T04:51:07.691Z,97961.25
2023-03-28T04:52:12.407Z,97952.31
2023-03-28T04:53:17.353Z,97946.92
2023-03-28T04:54:25.201Z,97945.27
2023-03-28T04:55:43.797Z,97938.02
2023-03-28T04:56:48.810Z,97948.79
2023-03-28T04:57:53.244Z,97944.23
2023-03-28T04:58:56.821Z,97939.02
2023-03-28T05:00:03.835Z,97938.84
2023-03-28T05:02:33.964Z,97950.23
2023-03-28T05:03:38.230Z,97953.34
2023-03-28T05:04:42.414Z,97953.17
2023-03-28T05:05:46.779Z,97944.23
2023-03-28T05:06:49.568Z,97940.52
2023-03-28T05:07:52.581Z,97942.21
2023-03-28T05:08:58.052Z,97938.50
2023-03-28T05:10:03.030Z,97937.64
2023-03-28T05:11:07.923Z,97940.16
2023-03-28T05:12:13.081Z,97940.83
2023-03-28T05:13:29.537Z,97941.66
2023-03-28T05:14:40.921Z,97938.97
2023-03-28T05:15:45.936Z,97938.97
2023-03-28T05:16:57.440Z,97939.82
2023-03-28T05:18:02.931Z,97940.64
2023-03-28T05:19:09.543Z,97948.55
2023-03-28T05:20:31.865Z,97940.64
2023-03-28T05:21:34.896Z,97940.47
2023-03-28T05:22:38.144Z,97943.16
2023-03-28T05:23:41.982Z,97944.02
2023-03-28T05:24:47.121Z,97946.70
2023-03-28T05:25:54.870Z,97946.86
2023-03-28T05:26:58.847Z,97943.16
2023-03-28T05:28:03.337Z,97940.47
2023-03-28T05:29:06.868Z,97929.69
2023-03-28T05:30:11.012Z,97941.47
2023-03-28T05:31:16.546Z,97945.85
2023-03-28T05:32:19.093Z,97936.94
2023-03-28T05:33:22.696Z,97937.77
2023-03-28T05:34:26.259Z,97936.94
2023-03-28T05:35:30.429Z,97931.55
2023-03-28T05:36:34.591Z,97928.86
2023-03-28T05:37:39.793Z,97929.69
2023-03-28T05:38:43.540Z,97928.00
2023-03-28T05:39:47.819Z,97932.38
2023-03-28T05:40:51.691Z,97928.00
2023-03-28T05:41:54.588Z,97936.27
2023-03-28T05:42:57.087Z,97937.13
2023-03-28T05:43:59.729Z,97920.84
2023-03-28T05:45:06.417Z,97920.84
2023-03-28T05:46:12.172Z,97931.92
2023-03-28T05:47:16.951Z,97929.38
2023-03-28T05:48:19.954Z,97929.23
2023-03-28T05:49:23.975Z,97918.61
2023-03-28T05:50:28.492Z,97926.53
2023-03-28T05:51:33.177Z,97922.80
2023-03-28T05:52:36.442Z,97919.28
2023-03-28T05:53:41.955Z,97927.36
2023-03-28T05:54:50.636Z,97921.97
2023-03-28T05:55:53.323Z,97925.49
2023-03-28T05:56:56.632Z,97928.19
2023-03-28T05:58:01.168Z,97921.15
2023-03-28T05:59:05.549Z,97921.97
2023-03-28T06:00:14.447Z,97921.97
2023-03-28T06:01:26.944Z,97919.46
2023-03-28T06:02:32.807Z,97919.46
2023-03-28T06:03:38.337Z,97922.16
2023-03-28T06:04:42.932Z,97919.46
2023-03-28T06:05:47.349Z,97919.65
2023-03-28T06:06:54.907Z,97916.09
2023-03-28T06:08:01.296Z,97914.45
2023-03-28T06:09:05.206Z,97915.45
2023-03-28T06:10:11.735Z,97912.95
2023-03-28T06:11:19.723Z,97912.95
2023-03-28T06:12:24.208Z,97909.21
2023-03-28T06:13:27.104Z,97911.27
2023-03-28T06:14:32.970Z,97909.39
2023-03-28T06:15:38.337Z,97899.48
2023-03-28T06:16:41.360Z,97906.52
2023-03-28T06:17:44.609Z,97900.12
2023-03-28T06:18:48.038Z,97894.73
2023-03-28T06:19:51.757Z,97896.59
2023-03-28T06:20:54.863Z,97894.73
2023-03-28T06:21:58.911Z,97892.89
2023-03-28T06:23:03.113Z,97885.83
2023-03-28T06:24:10.399Z,97893.05
2023-03-28T06:25:15.368Z,97890.36
2023-03-28T06:26:18.567Z,97884.14
2023-03-28T06:27:22.196Z,97884.97
2023-03-28T06:28:24.848Z,97889.53
2023-03-28T06:29:38.759Z,97882.45
2023-03-28T06:30:42.803Z,97881.63
2023-03-28T06:31:46.664Z,97880.81
2023-03-28T06:32:49.487Z,97872.91
2023-03-28T06:33:53.630Z,97880.13
2023-03-28T06:34:57.342Z,97871.23
2023-03-28T06:36:00.038Z,97880.13
2023-03-28T06:37:05.202Z,97867.67
2023-03-28T06:38:12.432Z,97864.16
2023-03-28T06:39:18.058Z,97870.38
2023-03-28T06:40:20.644Z,97868.53
2023-03-28T06:41:23.627Z,97861.47
2023-03-28T06:42:27.199Z,97872.05
2023-03-28T06:43:43.652Z,97855.06
2023-03-28T06:44:49.425Z,97852.37
2023-03-28T06:46:03.330Z,97854.21
2023-03-28T06:47:11.919Z,97855.25
2023-03-28T06:48:15.934Z,97852.56
2023-03-28T06:49:36.980Z,97845.49
2023-03-28T06:50:58.052Z,97842.13
2023-03-28T06:52:02.476Z,97847.52
2023-03-28T06:53:05.908Z,97836.92
2023-03-28T06:54:08.512Z,97835.27
2023-03-28T06:55:13.744Z,97837.97
2023-03-28T06:56:17.444Z,97840.66
2023-03-28T06:57:20.210Z,97832.58
2023-03-28T06:58:38.539Z,97832.58
2023-03-28T06:59:44.217Z,97836.28
2023-03-28T07:00:54.081Z,97832.58
2023-03-28T07:02:15.136Z,97845.86
2023-03-28T07:03:19.585Z,97835.27
2023-03-28T07:04:22.331Z,97832.58
2023-03-28T07:05:25.806Z,97833.59
2023-03-28T07:06:29.985Z,97837.30
2023-03-28T07:07:33.074Z,97830.89
2023-03-28T07:08:36.091Z,97823.83
2023-03-28T07:09:39.410Z,97819.45
2023-03-28T07:10:43.846Z,97814.06
2023-03-28T07:11:47.045Z,97812.23
2023-03-28T07:12:50.619Z,97812.42
2023-03-28T07:13:53.961Z,97808.04
2023-03-28T07:14:58.498Z,97813.61
2023-03-28T07:16:07.520Z,97807.38
2023-03-28T07:17:11.271Z,97803.85
2023-03-28T07:18:13.975Z,97803.22
2023-03-28T07:19:16.429Z,97787.12
2023-03-28T07:20:23.063Z,97787.12
2023-03-28T07:21:27.486Z,97794.65
2023-03-28T07:22:32.458Z,97791.47
2023-03-28T07:23:35.892Z,97791.47
2023-03-28T07:24:39.607Z,97797.90
2023-03-28T07:25:44.772Z,97787.12
2023-03-28T07:26:48.957Z,97782.75
2023-03-28T07:27:52.281Z,97790.83
2023-03-28T07:28:55.653Z,97790.01
2023-03-28T07:29:58.884Z,97793.70
2023-03-28T07:31:03.673Z,97799.09
2023-03-28T07:32:08.378Z,97798.42
2023-03-28T07:33:17.474Z,97799.28
2023-03-28T07:34:18.566Z,97788.69
2023-03-28T07:35:22.797Z,97788.84
2023-03-28T07:36:27.717Z,97798.80
2023-03-28T07:37:33.235Z,97802.49
2023-03-28T07:38:41.175Z,97801.48
2023-03-28T07:39:45.325Z,97799.61
2023-03-28T07:40:49.853Z,97800.66
2023-03-28T07:41:52.590Z,97794.42
2023-03-28T07:42:56.050Z,97797.11
2023-03-28T07:44:00.127Z,97797.97
2023-03-28T07:45:02.935Z,97809.74
2023-03-28T07:46:07.568Z,97805.37
2023-03-28T07:47:11.535Z,97803.72
2023-03-28T07:48:14.818Z,97794.59
2023-03-28T07:49:20.144Z,97805.37
2023-03-28T07:50:24.945Z,97800.84
2023-03-28T07:51:27.797Z,97804.55
2023-03-28T07:52:30.738Z,97805.37
2023-03-28T07:53:37.107Z,97807.05
2023-03-28T07:54:39.920Z,97798.16
2023-03-28T07:55:54.282Z,97798.97
2023-03-28T07:56:51.105Z,97805.37
2023-03-28T07:58:13.794Z,97792.77
2023-03-28T07:59:18.665Z,97791.91
2023-03-28T08:00:24.721Z,97799.16
2023-03-28T08:01:39.508Z,97793.96
2023-03-28T08:02:49.201Z,97794.14
2023-03-28T08:03:52.223Z,97804.05
2023-03-28T08:04:55.084Z,97808.61
2023-03-28T08:06:13.741Z,97790.78
2023-03-28T08:07:15.463Z,97794.48
2023-03-28T08:08:20.293Z,97797.33
2023-03-28T08:09:25.201Z,97803.75
2023-03-28T08:10:29.691Z,97780.35
2023-03-28T08:11:36.704Z,97803.75
2023-03-28T08:12:40.737Z,97798.52
2023-03-28T08:13:58.178Z,97799.38
2023-03-28T08:15:02.387Z,97793.14
2023-03-28T08:16:08.953Z,97782.37
2023-03-28T08:17:12.344Z,97793.14
2023-03-28T08:18:17.231Z,97783.23
2023-03-28T08:19:21.003Z,97783.23
2023-03-28T08:20:43.730Z,97779.68
2023-03-28T08:21:49.093Z,97787.11
2023-03-28T08:22:52.474Z,97796.20
2023-03-28T08:23:59.833Z,97789.98
2023-03-28T08:25:09.783Z,97787.48
2023-03-28T08:26:15.512Z,97790.36
2023-03-28T08:27:20.475Z,97792.19
2023-03-28T08:28:25.576Z,97776.05
2023-03-28T08:29:29.925Z,97779.77
2023-03-28T08:30:33.010Z,97786.98
2023-03-28T08:31:39.198Z,97783.29
2023-03-28T08:32:45.621Z,97789.50
2023-03-28T08:33:50.863Z,97787.66
2023-03-28T08:34:57.658Z,97787.48
2023-03-28T08:36:03.244Z,97791.18
2023-03-28T08:37:07.274Z,97791.18
2023-03-28T08:38:11.975Z,97790.53
2023-03-28T08:39:16.337Z,97794.88
2023-03-28T08:40:21.166Z,97787.84
2023-03-28T08:41:48.187Z,97780.41
2023-03-28T08:43:03.342Z,97781.23
2023-03-28T08:44:29.362Z,97780.59
2023-03-28T08:45:46.036Z,97795.73
2023-03-28T08:46:52.339Z,97782.47
2023-03-28T08:48:00.212Z,97789.86
2023-03-28T08:49:07.863Z,97790.69
2023-03-28T08:50:16.269Z,97783.66
2023-03-28T08:51:40.439Z,97797.94
2023-03-28T08:52:43.364Z,97798.12
2023-03-28T08:54:06.167Z,97794.42
2023-03-28T08:55:33.730Z,97800.81
2023-03-28T08:56:46.809Z,97797.30
2023-03-28T08:57:52.497Z,97804.33
2023-03-28T08:59:10.221Z,97804.33
2023-03-28T09:00:26.864Z,97803.31
2023-03-28T09:01:32.188Z,97804.14
2023-03-28T09:02:35.530Z,97801.45
2023-03-28T09:03:39.327Z,97797.75
2023-03-28T09:04:44.695Z,97801.12
2023-03-28T09:06:08.513Z,97805.64
2023-03-28T09:08:46.689Z,97803.23
2023-03-28T09:10:03.152Z,97810.51
2023-03-28T09:11:39.131Z,97804.27
2023-03-28T09:15:28.500Z,97817.17
2023-03-28T09:18:32.128Z,97806.41
2023-03-28T09:19:56.946Z,97806.59
2023-03-28T09:21:14.417Z,97802.25
2023-03-28T09:22:27.780Z,97790.44
2023-03-28T09:23:53.499Z,97793.99
2023-03-28T09:25:18.038Z,97793.99
2023-03-28T09:26:35.923Z,97797.52
2023-03-28T09:28:03.683Z,97790.44
2023-03-28T09:29:09.858Z,97788.61
2023-03-28T09:31:33.547Z,97780.50
2023-03-28T09:32:39.018Z,97790.63
2023-03-28T09:33:43.025Z,97793.31
2023-03-28T09:36:04.895Z,97786.52
2023-03-28T09:37:33.242Z,97783.23
2023-03-28T09:38:41.534Z,97782.22
2023-03-28T09:39:48.533Z,97773.95
2023-03-28T09:40:51.659Z,97777.47
2023-03-28T09:42:04.793Z,97778.33
2023-03-28T09:43:30.586Z,97777.32
2023-03-28T09:45:05.305Z,97779.00
2023-03-28T09:47:36.918Z,97776.06
2023-03-28T09:48:43.660Z,97783.56
2023-03-28T09:49:47.396Z,97788.09
2023-03-28T09:51:04.442Z,97780.02
2023-03-28T09:53:33.399Z,97776.43
2023-03-28T09:54:36.652Z,97778.48
2023-03-28T09:55:40.962Z,97780.35
2023-03-28T09:56:44.587Z,97780.35
2023-03-28T09:58:07.216Z,97777.66
2023-03-28T10:00:36.985Z,97777.44
2023-03-28T10:01:49.264Z,97781.36
2023-03-28T10:03:00.264Z,97777.84
2023-03-28T10:04:19.399Z,97786.10
2023-03-28T10:05:42.682Z,97774.66
2023-03-28T10:06:56.194Z,97781.09
2023-03-28T10:08:02.560Z,97774.66
2023-03-28T10:09:24.503Z,97772.16
2023-03-28T10:10:29.439Z,97756.20
2023-03-28T10:11:57.372Z,97765.45
2023-03-28T10:13:03.301Z,97771.03
2023-03-28T10:14:10.935Z,97770.20
2023-03-28T10:15:35.201Z,97777.42
2023-03-28T10:17:12.344Z,97769.34
2023-03-28T10:18:19.159Z,97775.77
2023-03-28T10:19:24.742Z,97771.20
2023-03-28T10:20:36.982Z,97772.22
2023-03-28T10:21:41.279Z,97766.02
2023-03-28T10:22:47.910Z,97768.70
2023-03-28T10:23:59.032Z,97767.69
2023-03-28T10:25:03.917Z,97757.08
2023-03-28T10:26:07.067Z,97767.02
2023-03-28T10:27:23.195Z,97767.02
2023-03-28T10:28:32.135Z,97763.32
2023-03-28T10:29:37.592Z,97769.71
2023-03-28T10:30:41.777Z,97758.13
2023-03-28T10:31:50.752Z,97753.75
2023-03-28T10:33:22.720Z,97742.16
2023-03-28T10:34:42.211Z,97762.00
2023-03-28T10:35:48.716Z,97757.88
2023-03-28T10:36:53.143Z,97757.23
2023-03-28T10:37:58.175Z,97754.05
2023-03-28T10:40:36.883Z,97763.56
2023-03-28T10:41:58.145Z,97760.11
2023-03-28T10:43:19.929Z,97757.94
2023-03-28T10:44:30.126Z,97750.87
2023-03-28T10:45:43.155Z,97753.56
2023-03-28T10:46:47.696Z,97748.03
2023-03-28T10:47:52.966Z,97740.60
2023-03-28T10:49:13.809Z,97742.47
2023-03-28T10:51:48.488Z,97739.99
2023-03-28T10:53:02.486Z,97741.27
2023-03-28T10:54:16.487Z,97740.91
2023-03-28T10:55:25.538Z,97736.35
2023-03-28T10:56:34.608Z,97737.85
2023-03-28T10:59:10.998Z,97738.09
2023-03-28T11:01:52.918Z,97732.16
2023-03-28T11:03:29.210Z,97732.22
2023-03-28T11:04:35.411Z,97728.70
2023-03-28T11:05:58.129Z,97730.36
2023-03-28T11:07:20.204Z,97725.65
2023-03-28T11:08:54.673Z,97727.48
2023-03-28T11:10:09.455Z,97731.03
2023-03-28T11:11:35.280Z,97715.70
2023-03-28T11:12:54.410Z,97726.66
2023-03-28T11:14:06.305Z,97723.97
2023-03-28T11:15:31.722Z,97721.28
2023-03-28T11:16:49.463Z,97715.89
2023-03-28T11:18:00.848Z,97714.89
2023-03-28T11:19:17.029Z,97714.03
2023-03-28T11:20:42.942Z,97711.19
2023-03-28T11:22:04.004Z,97708.30
2023-03-28T11:23:38.049Z,97717.20
2023-03-28T11:25:02.371Z,97709.13
2023-03-28T11:27:53.164Z,97705.17
2023-03-28T11:29:44.060Z,97707.27
2023-03-28T11:30:51.208Z,97710.14
2023-03-28T11:34:00.369Z,97709.06
2023-03-28T11:35:15.512Z,97704.13
2023-03-28T11:36:36.057Z,97701.61
2023-03-28T11:37:59.949Z,97703.45
2023-03-28T11:39:11.000Z,97705.31
2023-03-28T11:40:31.675Z,97700.76
2023-03-28T11:41:37.371Z,97698.92
2023-03-28T11:42:53.475Z,97698.92
2023-03-28T11:44:06.350Z,97703.27
2023-03-28T11:45:12.691Z,97696.88
2023-03-28T11:46:32.046Z,97695.04
2023-03-28T11:47:42.304Z,97692.98
2023-03-28T11:48:57.625Z,97694.48
2023-03-28T11:50:07.356Z,97701.55
2023-03-28T11:51:21.018Z,97697.66
2023-03-28T11:52:27.797Z,97697.28
2023-03-28T11:53:34.322Z,97696.09
2023-03-28T11:55:04.654Z,97692.20
2023-03-28T11:56:36.025Z,97696.57
2023-03-28T11:59:38.064Z,97687.70
2023-03-28T12:02:31.094Z,97683.14
2023-03-28T12:03:58.828Z,97686.92
2023-03-28T12:05:32.484Z,97685.09
2023-03-28T12:07:14.769Z,97679.70
2023-03-28T12:08:25.656Z,97675.14
2023-03-28T12:09:50.113Z,97682.21
2023-03-28T12:10:56.211Z,97683.03
2023-03-28T12:12:09.796Z,97677.65
2023-03-28T12:13:22.896Z,97671.25
2023-03-28T12:15:53.748Z,97674.13
2023-03-28T12:16:59.374Z,97677.27
2023-03-28T12:18:06.120Z,97676.27
2023-03-28T12:19:10.511Z,97676.27
2023-03-28T12:20:57.129Z,97670.69
2023-03-28T12:22:04.860Z,97669.87
2023-03-28T12:23:21.312Z,97664.30
2023-03-28T12:26:17.626Z,97662.81
2023-03-28T12:27:24.862Z,97663.09
2023-03-28T12:30:00.130Z,97661.61
2023-03-28T12:31:14.359Z,97669.11
2023-03-28T12:32:37.743Z,97658.53
2023-03-28T12:33:48.376Z,97661.89
2023-03-28T12:36:38.111Z,97659.37
2023-03-28T12:38:00.007Z,97657.81
2023-03-28T12:39:35.173Z,97663.01
2023-03-28T12:41:05.072Z,97661.14
2023-03-28T12:42:10.873Z,97657.43
2023-03-28T12:43:14.792Z,97664.50
2023-03-28T12:44:25.046Z,97665.32
2023-03-28T12:45:30.939Z,97660.76
2023-03-28T12:46:42.276Z,97653.53
2023-03-28T12:47:50.668Z,97660.56
2023-03-28T12:50:25.368Z,97658.83
2023-03-28T12:51:34.119Z,97660.13
2023-03-28T12:52:38.113Z,97657.43
2023-03-28T12:53:44.760Z,97663.83
2023-03-28T12:55:06.982Z,97659.45
2023-03-28T12:56:13.456Z,97659.45
2023-03-28T12:57:30.437Z,97659.45
2023-03-28T12:58:28.135Z,97658.45
2023-03-28T13:00:06.513Z,97659.27
2023-03-28T13:01:31.345Z,97658.25
2023-03-28T13:03:09.730Z,97658.25
2023-03-28T13:04:15.676Z,97658.25
2023-03-28T13:05:32.930Z,97651.19
2023-03-28T13:06:52.475Z,97643.30
2023-03-28T13:08:08.477Z,97640.61
2023-03-28T13:09:31.770Z,97645.17
2023-03-28T13:12:29.263Z,97648.41
2023-03-28T13:15:21.883Z,97651.48
2023-03-28T13:16:50.104Z,97651.95
2023-03-28T13:18:22.982Z,97651.95
2023-03-28T13:19:52.372Z,97652.96
2023-03-28T13:20:57.153Z,97648.62
2023-03-28T13:21:59.807Z,97642.38
2023-03-28T13:23:06.889Z,97645.07
2023-03-28T13:25:32.974Z,97645.65
2023-03-28T13:26:57.096Z,97641.55
2023-03-28T13:28:19.307Z,97644.25
2023-03-28T13:29:23.785Z,97645.92
2023-03-28T13:30:30.538Z,97642.19
2023-03-28T13:31:33.848Z,97643.05
2023-03-28T13:32:46.562Z,97638.67
2023-03-28T13:34:00.223Z,97644.88
2023-03-28T13:35:04.974Z,97645.73
2023-03-28T13:36:13.132Z,97644.69
2023-03-28T13:37:24.770Z,97638.48
2023-03-28T13:38:31.060Z,97642.00
2023-03-28T13:39:34.692Z,97642.86
2023-03-28T13:40:46.440Z,97642.86
2023-03-28T13:41:55.040Z,97639.97
2023-03-28T13:42:58.448Z,97642.67
2023-03-28T13:44:05.290Z,97637.28
2023-03-28T13:45:23.558Z,97638.11
2023-03-28T13:46:32.724Z,97637.28
2023-03-28T13:47:38.891Z,97638.11
2023-03-28T13:49:02.545Z,97638.96
2023-03-28T13:50:22.633Z,97641.66
2023-03-28T13:51:28.879Z,97641.66
2023-03-28T13:52:31.961Z,97646.19
2023-03-28T13:53:47.049Z,97644.34
2023-03-28T13:54:41.481Z,97640.80
2023-03-28T13:55:44.798Z,97648.05
2023-03-28T13:56:49.433Z,97648.88
2023-03-28T13:57:52.123Z,97649.73
2023-03-28T13:58:55.857Z,97647.20
2023-03-28T14:00:00.775Z,97652.42
2023-03-28T14:01:08.228Z,97646.19
2023-03-28T14:02:17.834Z,97648.69
2023-03-28T14:03:21.644Z,97655.94
2023-03-28T14:04:29.412Z,97651.38
2023-03-28T14:05:33.404Z,97653.06
2023-03-28T14:06:42.643Z,97654.08
2023-03-28T14:07:46.535Z,97655.75
2023-03-28T14:08:52.814Z,97654.73
2023-03-28T14:09:58.424Z,97653.88
2023-03-28T14:11:02.685Z,97656.58
2023-03-28T14:12:12.549Z,97653.06
2023-03-28T14:15:50.245Z,97649.89
2023-03-28T14:16:53.169Z,97660.95
2023-03-28T14:17:58.150Z,97655.56
2023-03-28T14:19:04.073Z,97652.05
2023-03-28T14:20:08.189Z,97657.43
2023-03-28T14:21:10.675Z,97638.11
2023-03-28T14:23:57.745Z,97638.74
2023-03-28T14:25:09.046Z,97644.41
2023-03-28T14:27:39.591Z,97644.13
2023-03-28T14:28:45.728Z,97642.77
2023-03-28T14:29:52.830Z,97649.98
2023-03-28T14:30:55.823Z,97651.86
2023-03-28T14:31:59.474Z,97647.30
2023-03-28T14:33:16.132Z,97650.18
2023-03-28T14:34:26.145Z,97657.24
2023-03-28T14:35:31.090Z,97652.68
2023-03-28T14:36:41.068Z,97654.55